Time;durP1;ratioP1;P1;durP2;ratioP2;P2;SDS_P1;SDS_P2;PMS_P1;PMS_P2;Temp;Humidity;BMP_temperature;BMP_pressure;BME280_temperature;BME280_humidity;BME280_pressure;Samples;Min_cycle;Max_cycle;Signal;HPM_P1;HPM_P2
2022/03/10 00:02:23;;;;;;;11.35;7.28;;;;;;;18.86;36.07;102419.75;5061466;28;20040;-38
2022/03/10 00:04:50;;;;;;;12.45;7.60;;;;;;;18.84;36.49;102425.25;5061659;28;20056;-39
2022/03/10 00:07:17;;;;;;;12.65;7.68;;;;;;;18.83;36.38;102425.38;5061013;28;20184;-39
2022/03/10 00:09:43;;;;;;;11.63;7.30;;;;;;;18.82;36.49;102424.53;5066328;28;20047;-38
2022/03/10 00:12:10;;;;;;;12.38;7.20;;;;;;;18.80;36.38;102421.09;5058860;28;20517;-39
2022/03/10 00:14:39;;;;;;;11.35;6.60;;;;;;;18.81;36.60;102427.31;5064291;28;20518;-38
2022/03/10 00:17:06;;;;;;;12.10;7.15;;;;;;;18.79;36.94;102423.91;5065375;28;20128;-38
2022/03/10 00:19:33;;;;;;;11.95;7.60;;;;;;;18.77;36.50;102429.38;5060757;28;20114;-38
2022/03/10 00:21:59;;;;;;;12.18;7.15;;;;;;;18.77;36.76;102431.22;5064376;28;20144;-39
2022/03/10 00:24:26;;;;;;;11.40;6.85;;;;;;;18.76;36.48;102434.88;5062702;28;20041;-38
2022/03/10 00:26:52;;;;;;;9.75;6.72;;;;;;;18.74;36.86;102427.81;5068541;28;20049;-38
2022/03/10 00:29:19;;;;;;;10.23;6.47;;;;;;;18.73;36.61;102431.47;5067570;28;20049;-38
2022/03/10 00:31:45;;;;;;;10.52;7.20;;;;;;;18.72;36.36;102427.06;5064377;28;20136;-38
2022/03/10 00:34:12;;;;;;;10.90;6.93;;;;;;;18.70;36.79;102431.69;5067191;28;20086;-38
2022/03/10 00:36:39;;;;;;;12.00;7.22;;;;;;;18.69;36.45;102426.41;5064126;28;20046;-39
2022/03/10 00:39:06;;;;;;;13.05;6.95;;;;;;;18.68;36.44;102428.22;5064659;28;20323;-38
2022/03/10 00:41:32;;;;;;;9.65;5.85;;;;;;;18.67;36.68;102425.69;5062570;28;20556;-38
2022/03/10 00:43:59;;;;;;;14.23;6.72;;;;;;;18.65;36.71;102432.97;5064320;28;20615;-38
2022/03/10 00:46:25;;;;;;;9.82;6.65;;;;;;;18.63;36.93;102424.22;5061215;28;20182;-39
2022/03/10 00:48:52;;;;;;;11.30;6.88;;;;;;;18.62;37.09;102423.34;5063320;28;20673;-38
2022/03/10 00:51:19;;;;;;;11.88;6.90;;;;;;;18.63;36.80;102422.38;5061064;28;20068;-38
2022/03/10 00:53:45;;;;;;;10.95;6.75;;;;;;;18.61;36.46;102426.13;5060018;28;20134;-38
2022/03/10 00:56:12;;;;;;;10.57;6.80;;;;;;;18.57;36.90;102425.50;5064467;28;20049;-38
2022/03/10 00:58:38;;;;;;;12.50;6.88;;;;;;;18.56;37.20;102423.81;5063650;28;20132;-38
2022/03/10 01:01:10;;;;;;;11.13;6.70;;;;;;;18.54;36.82;102425.78;5062988;28;20692;-38
2022/03/10 01:03:37;;;;;;;9.57;6.13;;;;;;;18.52;37.14;102425.03;5064308;28;20044;-38
2022/03/10 01:06:04;;;;;;;9.75;6.40;;;;;;;18.52;36.90;102426.84;5062520;28;20072;-38
2022/03/10 01:08:30;;;;;;;12.15;6.90;;;;;;;18.49;37.08;102419.88;5068478;28;20389;-39
2022/03/10 01:10:57;;;;;;;11.18;7.22;;;;;;;18.48;37.16;102420.88;5066903;28;20032;-38
2022/03/10 01:13:24;;;;;;;11.00;6.55;;;;;;;18.45;36.98;102419.28;5065847;28;20320;-38
2022/03/10 01:15:50;;;;;;;10.32;6.72;;;;;;;18.44;37.04;102411.34;5061123;28;20056;-38
2022/03/10 01:18:17;;;;;;;9.63;6.32;;;;;;;18.44;37.07;102425.63;5060594;28;20102;-38
2022/03/10 01:20:44;;;;;;;10.05;6.00;;;;;;;18.41;37.25;102422.31;5065738;28;20057;-38
2022/03/10 01:23:10;;;;;;;9.88;6.25;;;;;;;18.40;37.17;102417.91;5065278;28;20051;-38
2022/03/10 01:25:37;;;;;;;13.25;7.13;;;;;;;18.39;37.08;102417.06;5064511;28;20049;-38
2022/03/10 01:28:06;;;;;;;11.88;7.07;;;;;;;18.38;37.27;102419.88;5065840;28;20595;-38
2022/03/10 01:30:32;;;;;;;10.60;6.40;;;;;;;18.36;37.18;102413.75;5068336;28;20053;-38
2022/03/10 01:32:59;;;;;;;10.05;6.57;;;;;;;18.34;37.43;102413.03;5061233;28;20067;-39
2022/03/10 01:35:26;;;;;;;10.68;6.60;;;;;;;18.33;37.34;102413.97;5068871;28;20473;-38
2022/03/10 01:37:52;;;;;;;10.65;6.93;;;;;;;18.32;37.12;102415.81;5063804;28;20048;-38
2022/03/10 01:40:19;;;;;;;11.65;6.35;;;;;;;18.32;36.96;102423.00;5064817;28;20048;-38
2022/03/10 01:42:47;;;;;;;10.63;6.70;;;;;;;18.31;37.08;102418.63;5064864;28;20036;-38
2022/03/10 01:45:15;;;;;;;15.07;7.32;;;;;;;18.30;37.04;102427.66;5064916;28;20114;-38
2022/03/10 01:47:42;;;;;;;11.18;6.60;;;;;;;18.27;37.29;102428.75;5064333;28;20131;-38
2022/03/10 01:50:11;;;;;;;9.20;6.78;;;;;;;18.27;37.16;102427.88;5068125;28;20050;-38
2022/03/10 01:52:39;;;;;;;10.20;6.93;;;;;;;18.24;37.25;102432.50;5067023;28;20126;-38
2022/03/10 01:55:06;;;;;;;13.43;7.05;;;;;;;18.24;36.98;102429.81;5063758;28;20058;-38
2022/03/10 01:57:33;;;;;;;10.63;6.43;;;;;;;18.22;37.15;102434.47;5066025;28;20063;-38
2022/03/10 02:00:00;;;;;;;10.95;6.50;;;;;;;18.20;37.13;102428.34;5064675;28;20419;-38
2022/03/10 02:02:26;;;;;;;10.85;6.50;;;;;;;18.19;37.08;102425.78;5062633;28;20131;-38
2022/03/10 02:04:55;;;;;;;14.52;7.40;;;;;;;18.17;37.08;102422.34;5061019;28;20530;-38
2022/03/10 02:10:19;;;;;;;12.05;7.55;;;;;;;18.14;37.16;102417.22;5063636;28;20135;-38
2022/03/10 02:12:49;;;;;;;11.88;6.70;;;;;;;18.13;36.80;102416.38;5064024;28;20033;-38
2022/03/10 02:18:08;;;;;;;12.88;7.13;;;;;;;18.10;36.98;102421.97;5065906;28;20129;-38
2022/03/10 02:20:37;;;;;;;10.07;7.10;;;;;;;18.09;36.91;102412.22;5067270;28;20059;-38
2022/03/10 02:23:05;;;;;;;12.57;7.75;;;;;;;18.08;37.01;102425.72;5063155;28;20127;-39
2022/03/10 02:25:33;;;;;;;10.90;7.18;;;;;;;18.09;36.90;102422.06;5067891;28;20046;-38
2022/03/10 02:28:00;;;;;;;11.65;6.93;;;;;;;18.07;36.73;102416.81;5065681;28;20058;-38
2022/03/10 02:30:30;;;;;;;11.45;7.45;;;;;;;18.06;36.88;102417.81;5066518;28;20350;-38
2022/03/10 02:32:58;;;;;;;11.35;7.15;;;;;;;18.03;36.94;102418.03;5063896;28;20056;-38
2022/03/10 02:35:25;;;;;;;11.35;7.18;;;;;;;18.02;36.61;102427.06;5064544;28;20080;-39
2022/03/10 02:37:52;;;;;;;14.48;7.35;;;;;;;18.00;36.98;102427.16;5064676;28;20068;-38
2022/03/10 02:40:19;;;;;;;12.88;7.32;;;;;;;17.99;36.98;102427.28;5062114;28;20048;-39
2022/03/10 02:42:46;;;;;;;11.18;7.03;;;;;;;17.98;36.85;102422.88;5064992;28;20135;-38
2022/03/10 02:45:12;;;;;;;12.38;7.32;;;;;;;17.97;36.78;102421.19;5065276;28;20412;-38
2022/03/10 02:47:39;;;;;;;14.25;7.50;;;;;;;17.96;37.00;102419.44;5066363;28;20106;-38
2022/03/10 02:50:07;;;;;;;13.95;7.85;;;;;;;17.95;36.91;102423.97;5063319;28;20392;-39
2022/03/10 02:52:37;;;;;;;11.23;6.85;;;;;;;17.94;37.59;102421.41;5062898;28;20041;-38
2022/03/10 02:55:06;;;;;;;11.13;7.28;;;;;;;17.92;37.05;102412.59;5065440;28;20106;-37
2022/03/10 02:57:33;;;;;;;11.52;6.72;;;;;;;17.91;37.21;102416.25;5065551;28;20300;-38
2022/03/10 03:00:00;;;;;;;11.00;6.80;;;;;;;17.89;36.95;102413.72;5066193;28;20128;-38
2022/03/10 03:02:27;;;;;;;9.80;6.88;;;;;;;17.89;36.76;102418.19;5063577;28;20466;-39
2022/03/10 03:04:54;;;;;;;10.98;7.20;;;;;;;17.89;37.27;102424.44;5064080;28;20045;-38
2022/03/10 03:07:21;;;;;;;13.55;6.95;;;;;;;17.87;37.36;102428.19;5062539;28;20380;-38
2022/03/10 03:09:48;;;;;;;11.95;7.30;;;;;;;17.86;37.22;102439.91;5059019;28;20055;-38
2022/03/10 03:12:16;;;;;;;9.13;6.25;;;;;;;17.86;37.58;102429.16;5060981;28;20135;-38
2022/03/10 03:14:43;;;;;;;11.65;6.60;;;;;;;17.84;37.41;102437.31;5062630;28;20327;-38
2022/03/10 03:17:10;;;;;;;10.77;6.88;;;;;;;17.84;37.02;102439.13;5065535;28;20135;-38
2022/03/10 03:19:37;;;;;;;10.57;6.63;;;;;;;17.83;37.06;102434.75;5063636;28;20056;-38
2022/03/10 03:22:04;;;;;;;11.07;6.82;;;;;;;17.83;37.66;102440.13;5064467;28;20040;-38
2022/03/10 03:24:30;;;;;;;10.75;7.15;;;;;;;17.81;37.29;102445.59;5058964;28;20110;-38
2022/03/10 03:26:58;;;;;;;10.77;7.03;;;;;;;17.80;37.60;102445.69;5066388;28;20453;-38
2022/03/10 03:29:25;;;;;;;10.93;7.38;;;;;;;17.79;37.58;102449.38;5065516;28;20740;-38
2022/03/10 03:31:51;;;;;;;9.60;6.45;;;;;;;17.78;37.13;102447.66;5065304;28;20127;-38
2022/03/10 03:34:18;;;;;;;9.02;6.47;;;;;;;17.75;37.19;102452.25;5064320;28;20044;-38
2022/03/10 03:36:45;;;;;;;9.85;6.57;;;;;;;17.74;37.23;102457.72;5066533;28;20483;-38
2022/03/10 03:39:13;;;;;;;11.25;7.00;;;;;;;17.74;37.16;102458.59;5060549;28;20052;-38
2022/03/10 03:41:40;;;;;;;10.68;6.80;;;;;;;17.72;37.88;102460.50;5064978;28;20054;-38
2022/03/10 03:44:08;;;;;;;11.77;7.18;;;;;;;17.73;37.32;102458.69;5062202;28;20126;-37
2022/03/10 03:46:35;;;;;;;11.82;6.93;;;;;;;17.71;37.51;102460.63;5062791;28;20056;-37
2022/03/10 03:49:06;;;;;;;10.93;6.70;;;;;;;17.70;37.44;102458.91;5063988;28;20074;-38
2022/03/10 03:51:33;;;;;;;11.98;7.70;;;;;;;17.68;37.34;102461.69;5064112;28;20036;-38
2022/03/10 03:53:59;;;;;;;11.82;7.65;;;;;;;17.68;37.35;102463.50;5063091;28;20186;-38
2022/03/10 03:56:26;;;;;;;12.73;7.20;;;;;;;17.68;37.12;102466.19;5065920;28;20052;-38
2022/03/10 03:58:52;;;;;;;9.60;6.63;;;;;;;17.65;37.78;102474.47;5066005;28;20079;-38
2022/03/10 04:01:19;;;;;;;17.10;6.65;;;;;;;17.63;37.13;102469.22;5068822;28;20048;-38
2022/03/10 04:03:46;;;;;;;9.80;6.45;;;;;;;17.62;37.60;102470.19;5066686;28;20037;-38
2022/03/10 04:06:13;;;;;;;10.57;6.88;;;;;;;17.62;37.82;102469.34;5066869;28;20053;-37
2022/03/10 04:08:39;;;;;;;10.40;7.13;;;;;;;17.70;37.92;102472.31;5067724;28;20136;-38
2022/03/10 04:11:06;;;;;;;11.27;6.88;;;;;;;17.76;37.52;102478.09;5065511;28;20127;-38
2022/03/10 04:13:32;;;;;;;11.00;6.40;;;;;;;17.83;37.46;102473.16;5068592;28;20056;-38
2022/03/10 04:15:59;;;;;;;10.32;6.43;;;;;;;17.89;37.31;102477.19;5065495;28;20059;-38
2022/03/10 04:18:26;;;;;;;11.82;7.50;;;;;;;17.95;37.12;102474.94;5068704;28;20056;-38
2022/03/10 04:20:53;;;;;;;10.40;6.82;;;;;;;18.00;37.83;102470.06;5064722;28;20416;-38
2022/03/10 04:23:19;;;;;;;11.10;6.43;;;;;;;18.07;37.49;102470.50;5069229;28;20036;-38
2022/03/10 04:25:46;;;;;;;9.88;6.53;;;;;;;18.14;38.22;102468.22;5069134;28;20076;-38
2022/03/10 04:28:12;;;;;;;8.70;6.18;;;;;;;18.22;37.68;102471.19;5066023;28;20503;-38
2022/03/10 04:30:44;;;;;;;11.02;6.75;;;;;;;18.30;37.72;102475.97;5066976;28;20459;-38
2022/03/10 04:33:11;;;;;;;8.98;5.97;;;;;;;18.37;37.82;102474.50;5067851;28;20374;-38
2022/03/10 04:35:38;;;;;;;10.48;6.72;;;;;;;18.44;37.60;102484.69;5064882;28;20542;-38
2022/03/10 04:38:04;;;;;;;11.02;6.70;;;;;;;18.49;37.90;102474.47;5067195;28;20049;-38
2022/03/10 04:40:32;;;;;;;9.95;6.53;;;;;;;18.57;37.72;102475.69;5062142;28;20048;-38
2022/03/10 04:42:59;;;;;;;10.38;6.82;;;;;;;18.62;37.51;102477.06;5064970;28;20052;-38
2022/03/10 04:45:26;;;;;;;10.07;5.95;;;;;;;18.69;37.56;102474.75;5060584;28;20050;-38
2022/03/10 04:47:53;;;;;;;11.77;6.80;;;;;;;18.73;37.33;102474.44;5064656;28;20152;-37
2022/03/10 04:50:19;;;;;;;10.40;6.57;;;;;;;18.78;37.57;102476.78;5062216;28;20071;-37
2022/03/10 04:52:46;;;;;;;13.02;7.10;;;;;;;18.82;37.16;102472.88;5068110;28;20127;-38
2022/03/10 04:55:13;;;;;;;9.43;6.07;;;;;;;18.84;37.41;102467.38;5063380;28;20060;-37
2022/03/10 04:57:41;;;;;;;11.02;6.00;;;;;;;18.86;37.32;102471.66;5066997;28;20051;-38
2022/03/10 05:00:11;;;;;;;10.80;6.53;;;;;;;18.86;37.52;102471.66;5064904;28;20048;-37
2022/03/10 05:02:39;;;;;;;9.52;6.25;;;;;;;18.87;37.08;102472.50;5063363;28;20040;-38
2022/03/10 05:05:07;;;;;;;14.27;7.45;;;;;;;18.85;36.81;102469.94;5062023;28;20048;-38
2022/03/10 05:07:34;;;;;;;14.27;8.55;;;;;;;18.83;36.65;102468.34;5065354;28;20347;-38
2022/03/10 05:10:01;;;;;;;12.07;7.25;;;;;;;18.81;36.30;102464.91;5067439;28;20457;-39
2022/03/10 05:12:28;;;;;;;12.43;6.85;;;;;;;18.78;36.01;102478.59;5065715;28;20052;-39
2022/03/10 05:14:54;;;;;;;10.20;7.07;;;;;;;18.74;35.87;102469.94;5066046;28;20057;-39
2022/03/10 05:17:23;;;;;;;13.30;7.50;;;;;;;18.70;36.05;102465.75;5068040;28;20046;-39
2022/03/10 05:19:51;;;;;;;14.20;7.35;;;;;;;18.66;35.77;102473.16;5065450;28;20044;-38
2022/03/10 05:22:18;;;;;;;12.40;7.70;;;;;;;18.62;35.87;102476.22;5064452;28;20041;-38
2022/03/10 05:24:46;;;;;;;12.55;7.18;;;;;;;18.57;35.79;102468.47;5063358;28;20131;-38
2022/03/10 05:27:13;;;;;;;11.68;7.57;;;;;;;18.52;36.00;102476.03;5062047;28;20048;-38
2022/03/10 05:29:40;;;;;;;13.02;8.05;;;;;;;18.47;36.30;102468.34;5059501;28;20063;-38
2022/03/10 05:32:10;;;;;;;12.07;7.40;;;;;;;18.43;35.73;102466.88;5059831;28;20477;-38
2022/03/10 05:34:38;;;;;;;13.88;8.25;;;;;;;18.37;36.00;102461.09;5059268;28;20055;-38
2022/03/10 05:37:05;;;;;;;12.77;7.43;;;;;;;18.31;36.00;102469.63;5059050;28;20049;-38
2022/03/10 05:39:32;;;;;;;14.27;7.90;;;;;;;18.24;36.33;102461.16;5058608;28;20171;-38
2022/03/10 05:41:59;;;;;;;13.10;8.38;;;;;;;18.19;36.04;102463.34;5060040;28;20127;-38
2022/03/10 05:44:25;;;;;;;13.27;8.02;;;;;;;18.15;35.53;102472.59;5065027;28;20149;-38
2022/03/10 05:46:52;;;;;;;13.48;8.35;;;;;;;18.10;36.04;102464.91;5065629;28;20051;-38
2022/03/10 05:49:19;;;;;;;11.95;7.45;;;;;;;18.07;36.46;102470.50;5067500;28;20048;-38
2022/03/10 05:51:45;;;;;;;13.32;7.85;;;;;;;18.02;36.26;102469.13;5067789;28;20044;-38
2022/03/10 05:54:12;;;;;;;12.55;7.65;;;;;;;17.97;36.69;102467.66;5066708;28;20067;-38
2022/03/10 05:56:38;;;;;;;13.07;7.70;;;;;;;17.93;36.48;102465.28;5064631;28;20068;-38
2022/03/10 05:59:05;;;;;;;13.57;7.88;;;;;;;17.90;36.36;102466.38;5065044;28;20124;-38
2022/03/10 06:01:31;;;;;;;10.90;7.20;;;;;;;17.88;36.07;102475.50;5061992;28;20128;-38
2022/03/10 06:03:58;;;;;;;13.05;7.72;;;;;;;17.83;36.13;102475.00;5068092;28;20086;-37
2022/03/10 06:06:25;;;;;;;14.82;7.68;;;;;;;17.81;36.37;102477.78;5067337;28;20893;-38
2022/03/10 06:08:51;;;;;;;14.18;7.85;;;;;;;17.79;36.39;102486.91;5069488;28;20043;-38
2022/03/10 06:11:18;;;;;;;11.68;7.70;;;;;;;17.76;37.06;102478.09;5066932;28;20140;-38
2022/03/10 06:13:44;;;;;;;14.73;7.70;;;;;;;17.75;36.82;102476.41;5062999;28;20076;-38
2022/03/10 06:16:11;;;;;;;12.48;7.80;;;;;;;17.74;37.20;102484.53;5065211;28;20067;-37
2022/03/10 06:18:38;;;;;;;12.85;7.22;;;;;;;17.72;37.04;102490.00;5066385;28;20072;-38
2022/03/10 06:21:06;;;;;;;11.73;7.28;;;;;;;17.70;36.90;102489.25;5067400;28;20040;-38
2022/03/10 06:23:33;;;;;;;12.25;7.93;;;;;;;17.71;36.63;102490.97;5065311;28;20037;-38
2022/03/10 06:25:59;;;;;;;12.35;7.13;;;;;;;17.70;36.81;102494.63;5063531;28;20051;-38
2022/03/10 06:28:26;;;;;;;12.00;8.00;;;;;;;17.70;36.85;102488.41;5062907;28;20471;-38
2022/03/10 06:30:52;;;;;;;11.98;7.35;;;;;;;17.69;37.24;102490.25;5063928;28;20055;-37
2022/03/10 06:33:19;;;;;;;11.73;6.95;;;;;;;17.70;36.82;102483.91;5063091;28;20063;-37
2022/03/10 06:35:46;;;;;;;11.15;7.20;;;;;;;17.69;36.51;102487.56;5065559;28;20045;-37
2022/03/10 06:38:12;;;;;;;10.70;7.55;;;;;;;17.66;36.71;102479.72;5061251;28;20048;-38
2022/03/10 06:40:39;;;;;;;12.23;7.70;;;;;;;17.67;37.10;102489.47;5066113;28;20052;-37
2022/03/10 06:43:05;;;;;;;12.80;7.28;;;;;;;17.66;37.19;102487.78;5062758;28;20055;-37
2022/03/10 06:45:32;;;;;;;9.27;6.70;;;;;;;17.64;37.33;102484.31;5060546;28;20145;-37
2022/03/10 06:47:59;;;;;;;10.48;6.93;;;;;;;17.62;36.57;102491.63;5061590;28;20087;-37
2022/03/10 06:50:25;;;;;;;12.40;7.07;;;;;;;17.63;36.78;102489.81;5061812;28;20046;-37
2022/03/10 06:52:56;;;;;;;10.68;6.90;;;;;;;17.61;37.13;102494.41;5060567;28;20043;-38
2022/03/10 06:55:26;;;;;;;14.70;6.88;;;;;;;17.61;36.50;102494.41;5061702;28;20091;-37
2022/03/10 06:57:53;;;;;;;16.15;8.02;;;;;;;17.60;37.49;102490.88;5064462;28;20123;-37
2022/03/10 07:00:21;;;;;;;10.38;6.82;;;;;;;17.60;36.89;102490.03;5061855;28;20040;-37
2022/03/10 07:02:48;;;;;;;12.40;8.10;;;;;;;17.58;37.22;102490.16;5059460;28;20424;-37
2022/03/10 07:05:15;;;;;;;13.32;7.80;;;;;;;17.56;36.90;102492.06;5062589;28;20470;-38
2022/03/10 07:07:41;;;;;;;12.30;7.22;;;;;;;17.55;36.30;102490.38;5059947;28;20167;-37
2022/03/10 07:10:09;;;;;;;12.80;7.45;;;;;;;17.54;36.79;102488.66;5060976;28;20308;-38
2022/03/10 07:12:40;;;;;;;14.70;8.20;;;;;;;17.55;37.08;102494.88;5058662;28;20411;-37
2022/03/10 07:15:11;;;;;;;13.00;8.48;;;;;;;17.54;36.96;102499.38;5059288;28;20044;-37
2022/03/10 07:17:42;;;;;;;14.23;8.02;;;;;;;17.52;36.18;102503.97;5059115;28;20128;-37
2022/03/10 07:20:09;;;;;;;10.75;6.88;;;;;;;17.52;36.60;102502.16;5060165;28;20067;-37
2022/03/10 07:22:35;;;;;;;12.30;7.68;;;;;;;17.53;36.62;102513.75;5059051;28;20124;-38
2022/03/10 07:25:02;;;;;;;12.00;7.68;;;;;;;17.52;36.50;102510.19;5061548;28;20051;-37
2022/03/10 07:27:29;;;;;;;11.27;7.07;;;;;;;17.50;36.54;102505.94;5060420;28;20052;-39
2022/03/10 07:29:55;;;;;;;13.90;7.88;;;;;;;17.51;37.02;102507.63;5059204;28;20811;-38
2022/03/10 07:32:24;;;;;;;12.63;7.70;;;;;;;17.52;36.89;102510.19;5057635;28;20047;-38
2022/03/10 07:34:51;;;;;;;12.75;7.90;;;;;;;17.52;36.57;102501.31;5063118;28;20079;-38
2022/03/10 07:37:18;;;;;;;12.73;8.07;;;;;;;17.52;36.52;102512.03;5062168;28;20055;-38
2022/03/10 07:39:44;;;;;;;12.50;7.88;;;;;;;17.51;36.45;102503.13;5064803;28;20045;-38
2022/03/10 07:42:11;;;;;;;13.18;7.15;;;;;;;17.53;36.18;102511.06;5062742;28;20040;-38
2022/03/10 07:44:37;;;;;;;15.02;8.65;;;;;;;17.55;36.54;102502.91;5065121;28;20044;-37
2022/03/10 07:47:05;;;;;;;14.30;8.60;;;;;;;17.55;36.15;102505.59;5062106;28;20133;-38
2022/03/10 07:49:32;;;;;;;14.13;7.68;;;;;;;17.58;36.17;102506.25;5061539;28;20075;-37
2022/03/10 07:52:02;;;;;;;14.75;8.48;;;;;;;17.61;35.83;102510.50;5061603;28;20106;-37
2022/03/10 07:54:28;;;;;;;13.73;7.85;;;;;;;17.65;36.46;102503.97;5064798;28;20120;-37
2022/03/10 07:56:55;;;;;;;14.93;8.27;;;;;;;17.68;35.83;102512.63;5063543;28;20388;-37
2022/03/10 07:59:21;;;;;;;12.43;8.07;;;;;;;17.71;35.77;102506.19;5062712;28;20131;-37
2022/03/10 08:01:48;;;;;;;13.23;8.30;;;;;;;17.74;35.67;102506.00;5061113;28;20045;-37
2022/03/10 08:04:15;;;;;;;15.60;8.52;;;;;;;17.77;35.77;102508.50;5063558;28;20055;-37
2022/03/10 08:06:42;;;;;;;14.00;8.48;;;;;;;17.81;35.30;102506.41;5062198;28;20123;-37
2022/03/10 08:09:10;;;;;;;11.93;7.60;;;;;;;17.84;36.01;102501.69;5061541;28;20060;-37
2022/03/10 08:11:39;;;;;;;15.02;8.90;;;;;;;17.89;36.18;102512.06;5061790;28;20116;-37
2022/03/10 08:14:07;;;;;;;12.25;7.60;;;;;;;17.91;35.75;102505.63;5061836;28;20048;-36
2022/03/10 08:16:34;;;;;;;11.93;7.68;;;;;;;17.96;35.63;102502.63;5066215;28;20072;-37
2022/03/10 08:19:01;;;;;;;17.55;8.27;;;;;;;17.99;36.02;102507.75;5063679;28;20044;-37
2022/03/10 08:21:27;;;;;;;12.20;8.13;;;;;;;18.04;35.56;102500.22;5064746;28;20387;-37
2022/03/10 08:23:54;;;;;;;14.77;7.75;;;;;;;18.09;36.01;102497.19;5062940;28;20044;-37
2022/03/10 08:26:21;;;;;;;15.50;8.23;;;;;;;18.12;36.23;102500.50;5063489;28;20082;-36
2022/03/10 08:28:51;;;;;;;12.57;7.63;;;;;;;18.17;35.90;102487.63;5062079;28;20062;-37
2022/03/10 08:31:18;;;;;;;13.73;8.20;;;;;;;18.22;36.15;102482.78;5064279;28;20103;-37
2022/03/10 08:33:46;;;;;;;15.10;8.93;;;;;;;18.27;35.92;102487.78;5064079;28;20037;-37
2022/03/10 08:36:14;;;;;;;14.93;8.75;;;;;;;18.32;36.22;102493.66;5061305;28;20053;-37
2022/03/10 08:38:41;;;;;;;23.35;9.88;;;;;;;18.36;35.97;102492.44;5063062;28;20147;-37
2022/03/10 08:41:08;;;;;;;20.63;9.25;;;;;;;18.41;36.45;102489.41;5062337;28;20087;-38
2022/03/10 08:43:37;;;;;;;17.65;9.35;;;;;;;18.45;36.69;102485.53;5055391;28;20124;-37
2022/03/10 08:46:05;;;;;;;22.38;10.05;;;;;;;18.49;36.47;102487.88;5063125;28;20063;-37
2022/03/10 08:48:32;;;;;;;19.52;9.93;;;;;;;18.54;36.68;102484.84;5064201;28;20044;-37
2022/03/10 08:51:00;;;;;;;17.50;9.45;;;;;;;18.57;37.19;102487.28;5062615;28;20136;-37
2022/03/10 08:53:27;;;;;;;18.55;10.98;;;;;;;18.62;37.16;102493.19;5063378;28;20091;-37
2022/03/10 08:55:53;;;;;;;22.27;10.57;;;;;;;18.67;37.41;102492.81;5064691;28;20070;-37
2022/03/10 08:58:24;;;;;;;24.23;10.90;;;;;;;18.71;36.64;102492.50;5062340;28;20485;-37
2022/03/10 09:00:51;;;;;;;19.75;10.52;;;;;;;18.74;37.19;102489.59;5062797;28;20242;-38
2022/03/10 09:03:38;;;;;;;21.80;10.98;;;;;;;18.79;37.01;102489.22;5064426;28;20051;-37
2022/03/10 09:06:07;;;;;;;20.05;10.00;;;;;;;18.82;37.21;102483.63;5065190;28;20036;-37
2022/03/10 09:08:35;;;;;;;21.90;11.25;;;;;;;18.85;37.16;102483.34;5063900;28;20049;-37
2022/03/10 09:11:02;;;;;;;21.65;10.30;;;;;;;18.89;37.13;102478.59;5064990;28;20088;-37
2022/03/10 09:13:29;;;;;;;18.85;9.52;;;;;;;18.93;38.10;102482.75;5064167;28;20143;-37
2022/03/10 09:15:56;;;;;;;21.05;10.23;;;;;;;18.96;39.02;102479.84;5063929;28;20378;-38
2022/03/10 09:18:23;;;;;;;17.98;10.02;;;;;;;18.99;39.28;102471.56;5059865;28;20045;-37
2022/03/10 09:20:50;;;;;;;19.48;9.73;;;;;;;19.03;39.58;102475.72;5066463;28;20331;-37
2022/03/10 09:23:17;;;;;;;18.27;9.65;;;;;;;19.07;40.64;102468.25;5064789;28;20127;-37
2022/03/10 09:25:43;;;;;;;20.17;9.30;;;;;;;19.10;41.11;102468.88;5065566;28;20301;-37
2022/03/10 09:28:13;;;;;;;15.65;8.85;;;;;;;19.13;40.49;102467.75;5061756;28;20052;-37
2022/03/10 09:30:39;;;;;;;22.90;10.05;;;;;;;19.15;41.07;102469.38;5065675;28;20165;-38
2022/03/10 09:33:06;;;;;;;23.83;10.45;;;;;;;19.18;40.72;102461.06;5066312;28;20037;-38
2022/03/10 09:35:33;;;;;;;19.25;9.20;;;;;;;19.22;40.46;102461.69;5064511;28;20119;-38
2022/03/10 09:37:59;;;;;;;20.08;9.52;;;;;;;19.28;41.13;102457.63;5060394;28;20432;-38
2022/03/10 09:40:26;;;;;;;20.35;10.02;;;;;;;19.29;40.85;102457.50;5064610;28;20419;-38
2022/03/10 09:42:52;;;;;;;21.23;9.20;;;;;;;19.35;40.91;102458.88;5064382;28;20134;-37
2022/03/10 09:45:19;;;;;;;17.95;9.63;;;;;;;19.39;40.53;102458.50;5062053;28;20059;-38
2022/03/10 09:47:46;;;;;;;18.02;9.68;;;;;;;19.43;41.03;102441.13;5062477;28;20052;-38
2022/03/10 09:50:16;;;;;;;17.15;9.38;;;;;;;19.48;41.17;102441.59;5060759;28;20136;-38
2022/03/10 09:52:44;;;;;;;13.43;8.48;;;;;;;19.54;40.87;102442.97;5064248;28;20040;-38
2022/03/10 09:55:12;;;;;;;20.15;9.25;;;;;;;19.58;41.38;102447.13;5061744;28;20039;-37
2022/03/10 09:57:41;;;;;;;19.00;8.50;;;;;;;19.63;41.87;102439.53;5064711;28;20072;-37
2022/03/10 10:00:10;;;;;;;21.40;9.60;;;;;;;19.69;41.34;102446.25;5064702;28;20110;-39
2022/03/10 10:02:41;;;;;;;17.15;8.32;;;;;;;19.75;41.74;102442.22;5065123;28;20059;-38
2022/03/10 10:05:28;;;;;;;14.60;8.18;;;;;;;19.80;41.14;102445.38;5064961;28;20135;-38
2022/03/10 10:08:02;;;;;;;14.38;8.20;;;;;;;19.85;41.52;102452.06;5065507;28;20135;-38
2022/03/10 10:10:30;;;;;;;18.35;8.90;;;;;;;19.88;40.77;102446.44;5061208;28;20210;-38
2022/03/10 10:13:06;;;;;;;17.10;8.90;;;;;;;19.94;40.87;102445.97;5064104;28;20053;-38
2022/03/10 10:15:37;;;;;;;11.93;7.45;;;;;;;19.99;40.57;102448.25;5064405;28;20037;-38
2022/03/10 10:18:06;;;;;;;12.85;8.02;;;;;;;20.03;41.10;102448.88;5064424;28;20368;-38
2022/03/10 10:20:54;;;;;;;12.63;7.63;;;;;;;20.08;40.57;102446.63;5064243;28;20052;-37
2022/03/10 10:23:29;;;;;;;15.48;8.15;;;;;;;20.13;41.09;102445.25;5065124;28;20128;-37
2022/03/10 10:26:06;;;;;;;15.20;7.82;;;;;;;20.16;40.83;102442.31;5062787;28;20076;-36
2022/03/10 10:28:35;;;;;;;13.20;7.40;;;;;;;20.19;40.97;102439.38;5063006;28;20044;-38
2022/03/10 10:31:03;;;;;;;11.95;7.20;;;;;;;20.24;40.34;102438.97;5061782;28;20125;-38
2022/03/10 10:33:34;;;;;;;12.85;7.28;;;;;;;20.27;40.58;102436.03;5059098;28;20040;-37
2022/03/10 10:36:30;;;;;;;14.95;7.93;;;;;;;20.31;41.00;102440.19;5062952;28;20146;-36
2022/03/10 10:39:09;;;;;;;11.95;7.82;;;;;;;20.34;40.75;102439.94;5062248;28;20351;-37
2022/03/10 10:41:39;;;;;;;11.13;7.32;;;;;;;20.38;40.47;102437.78;5061637;28;20317;-37
2022/03/10 10:44:08;;;;;;;11.55;7.30;;;;;;;20.40;40.13;102436.69;5063594;28;20119;-38
2022/03/10 10:46:40;;;;;;;11.57;6.68;;;;;;;20.43;40.34;102438.28;5058853;28;20140;-37
2022/03/10 10:49:17;;;;;;;12.27;7.28;;;;;;;20.45;40.56;102428.22;5060795;28;20044;-37
2022/03/10 10:51:49;;;;;;;12.75;7.30;;;;;;;20.48;40.09;102425.28;5064654;28;20124;-37
2022/03/10 10:54:23;;;;;;;11.18;7.05;;;;;;;20.50;40.69;102427.84;5061889;28;20064;-38
2022/03/10 10:56:57;;;;;;;11.07;7.32;;;;;;;20.52;39.89;102423.19;5058959;28;20044;-37
2022/03/10 10:59:40;;;;;;;11.88;6.93;;;;;;;20.54;40.52;102416.69;5060562;28;20593;-37
2022/03/10 11:02:10;;;;;;;14.13;7.00;;;;;;;20.54;39.86;102418.53;5062378;28;20040;-37
2022/03/10 11:04:42;;;;;;;12.82;7.20;;;;;;;20.54;40.35;102411.28;5059409;28;20420;-37
2022/03/10 11:07:10;;;;;;;13.63;7.20;;;;;;;20.55;40.52;102417.56;5061307;28;20057;-37
2022/03/10 11:09:39;;;;;;;13.20;7.60;;;;;;;20.56;40.27;102413.88;5063188;28;20382;-38
2022/03/10 11:12:10;;;;;;;10.82;6.93;;;;;;;20.55;39.75;102404.94;5063723;28;20119;-38
2022/03/10 11:14:37;;;;;;;12.75;7.28;;;;;;;20.55;39.94;102413.03;5062957;28;20135;-37
2022/03/10 11:17:04;;;;;;;10.23;6.53;;;;;;;20.54;39.96;102399.66;5064299;28;20060;-38
2022/03/10 11:19:42;;;;;;;9.55;6.53;;;;;;;20.54;40.32;102410.44;5064900;28;20109;-38
2022/03/10 11:22:22;;;;;;;12.25;7.35;;;;;;;20.54;39.74;102405.06;5063434;28;20475;-37
2022/03/10 11:25:15;;;;;;;12.00;6.65;;;;;;;20.54;39.60;102402.34;5062355;28;20051;-38
2022/03/10 11:27:52;;;;;;;10.82;6.90;;;;;;;20.54;40.28;102395.13;5059923;28;20547;-38